createdAt,value
2019-05-26T00:00:14.712Z,11.45
2019-05-26T00:02:44.118Z,11.33
2019-05-26T00:05:13.750Z,11.12
2019-05-26T00:07:43.185Z,11.55
2019-05-26T00:10:12.790Z,11.20
2019-05-26T00:12:42.083Z,11.35
2019-05-26T00:15:11.752Z,11.57
2019-05-26T00:17:41.067Z,11.73
2019-05-26T00:20:10.466Z,11.60
2019-05-26T00:22:40.277Z,11.28
2019-05-26T00:25:10.052Z,11.05
2019-05-26T00:27:39.363Z,12.03
2019-05-26T00:30:09.751Z,11.57
2019-05-26T00:32:39.268Z,12.37
2019-05-26T00:35:09.010Z,12.78
2019-05-26T00:37:48.986Z,12.58
2019-05-26T00:40:10.297Z,11.93
2019-05-26T00:42:39.622Z,12.50
2019-05-26T00:45:09.611Z,12.10
2019-05-26T00:47:39.008Z,12.68
2019-05-26T00:50:09.768Z,12.53
2019-05-26T00:52:39.141Z,12.75
2019-05-26T00:55:08.781Z,12.33
2019-05-26T00:57:38.341Z,12.15
2019-05-26T01:00:08.075Z,12.95
2019-05-26T01:02:37.664Z,11.80
2019-05-26T01:05:08.475Z,12.68
2019-05-26T01:07:40.637Z,12.47
2019-05-26T01:10:10.577Z,12.73
2019-05-26T01:12:48.936Z,12.37
2019-05-26T01:15:18.417Z,12.28
2019-05-26T01:17:47.673Z,12.75
2019-05-26T01:20:17.831Z,12.03
2019-05-26T01:22:47.560Z,12.78
2019-05-26T01:25:16.965Z,12.70
2019-05-26T01:27:46.301Z,13.08
2019-05-26T01:30:16.090Z,14.33
2019-05-26T01:32:45.432Z,15.28
2019-05-26T01:35:15.437Z,16.10
2019-05-26T01:37:45.078Z,16.65
2019-05-26T01:40:14.408Z,15.65
2019-05-26T01:42:43.720Z,16.27
2019-05-26T01:45:13.214Z,17.25
2019-05-26T01:47:42.670Z,16.80
2019-05-26T01:50:12.576Z,17.52
2019-05-26T01:52:42.086Z,18.12
2019-05-26T01:55:11.419Z,18.05
2019-05-26T01:57:40.906Z,17.98
2019-05-26T02:00:10.567Z,19.12
2019-05-26T02:02:39.875Z,18.15
2019-05-26T02:05:09.567Z,18.35
2019-05-26T02:07:38.930Z,19.80
2019-05-26T02:10:08.255Z,19.27
2019-05-26T02:12:37.660Z,19.32
2019-05-26T02:15:07.265Z,19.27
2019-05-26T02:17:36.662Z,19.45
2019-05-26T02:20:07.180Z,20.52
2019-05-26T02:22:36.854Z,19.90
2019-05-26T02:25:06.502Z,20.20
2019-05-26T02:27:35.997Z,20.65
2019-05-26T02:30:06.098Z,21.17
2019-05-26T02:32:36.132Z,21.87
2019-05-26T02:35:06.406Z,21.15
2019-05-26T02:37:35.824Z,21.10
2019-05-26T02:40:06.118Z,20.43
2019-05-26T02:42:35.434Z,21.20
2019-05-26T02:45:05.760Z,22.02
2019-05-26T02:47:35.238Z,21.90
2019-05-26T02:50:05.509Z,20.57
2019-05-26T02:52:34.947Z,20.97
2019-05-26T02:55:04.513Z,22.48
2019-05-26T02:57:33.847Z,22.55
2019-05-26T03:00:03.308Z,22.98
2019-05-26T03:02:32.604Z,23.62
2019-05-26T03:05:02.134Z,25.37
2019-05-26T03:07:32.323Z,25.68
2019-05-26T03:10:03.720Z,25.30
2019-05-26T03:12:34.581Z,26.33
2019-05-26T03:15:05.838Z,27.05
2019-05-26T03:17:35.548Z,27.62
2019-05-26T03:20:06.692Z,27.20
2019-05-26T03:22:40.710Z,28.50
2019-05-26T03:25:10.150Z,28.07
2019-05-26T03:27:39.503Z,29.07
2019-05-26T03:30:10.347Z,28.02
2019-05-26T03:32:39.822Z,28.25
2019-05-26T03:35:09.926Z,29.05
2019-05-26T03:37:39.217Z,30.55
2019-05-26T03:40:09.790Z,31.35
2019-05-26T03:42:39.113Z,32.35
2019-05-26T03:45:09.964Z,33.35
2019-05-26T03:47:39.290Z,34.70
2019-05-26T03:50:08.795Z,34.30
2019-05-26T03:52:38.233Z,35.68
2019-05-26T03:55:08.831Z,37.98
2019-05-26T03:57:38.260Z,36.00
2019-05-26T04:00:07.833Z,35.60
2019-05-26T04:02:37.180Z,37.17
2019-05-26T04:05:10.984Z,37.73
2019-05-26T04:07:40.321Z,37.53
2019-05-26T04:10:10.048Z,38.80
2019-05-26T04:12:39.436Z,39.60
2019-05-26T04:15:08.867Z,40.43
2019-05-26T04:17:38.175Z,41.55
2019-05-26T04:20:07.869Z,40.58
2019-05-26T04:22:37.557Z,40.75
2019-05-26T04:25:07.036Z,42.25
2019-05-26T04:27:36.342Z,41.63
2019-05-26T04:30:06.714Z,40.43
2019-05-26T04:32:36.079Z,41.25
2019-05-26T04:35:06.261Z,39.53
2019-05-26T04:37:37.678Z,38.40
2019-05-26T04:40:24.949Z,36.70
2019-05-26T04:42:38.349Z,35.60
2019-05-26T04:45:08.137Z,34.95
2019-05-26T04:47:37.463Z,35.75
2019-05-26T04:50:07.834Z,34.33
2019-05-26T04:52:38.488Z,34.38
2019-05-26T04:55:11.050Z,34.05
2019-05-26T04:57:39.872Z,35.65
2019-05-26T05:00:09.619Z,36.17
2019-05-26T05:02:39.065Z,35.60
2019-05-26T05:05:08.499Z,38.63
2019-05-26T05:07:37.841Z,39.53
2019-05-26T05:10:07.588Z,43.75
2019-05-26T05:12:36.918Z,45.38
2019-05-26T05:15:06.983Z,45.80
2019-05-26T05:17:36.299Z,49.23
2019-05-26T05:20:06.174Z,49.35
2019-05-26T05:22:36.915Z,49.38
2019-05-26T05:25:13.881Z,50.12
2019-05-26T05:27:37.769Z,47.80
2019-05-26T05:30:08.747Z,48.00
2019-05-26T05:32:38.107Z,47.83
2019-05-26T05:35:08.935Z,47.85
2019-05-26T05:37:38.420Z,46.98
2019-05-26T05:40:08.601Z,46.28
2019-05-26T05:42:38.829Z,44.18
2019-05-26T05:45:09.319Z,43.65
2019-05-26T05:47:38.644Z,43.52
2019-05-26T05:50:08.731Z,42.10
2019-05-26T05:52:38.026Z,40.88
2019-05-26T05:55:08.364Z,39.73
2019-05-26T05:57:37.821Z,38.23
2019-05-26T06:00:08.112Z,36.48
2019-05-26T06:02:37.518Z,34.88
2019-05-26T06:05:07.119Z,34.50
2019-05-26T06:07:36.644Z,34.50
2019-05-26T06:10:07.602Z,33.70
2019-05-26T06:12:36.985Z,33.85
2019-05-26T06:15:09.067Z,33.08
2019-05-26T06:17:38.657Z,32.93
2019-05-26T06:20:08.887Z,33.85
2019-05-26T06:22:40.634Z,33.38
2019-05-26T06:25:10.398Z,31.63
2019-05-26T06:27:39.867Z,30.43
2019-05-26T06:30:10.304Z,32.10
2019-05-26T06:32:39.723Z,31.62
2019-05-26T06:35:09.216Z,31.10
2019-05-26T06:37:38.657Z,30.52
2019-05-26T06:40:08.403Z,29.35
2019-05-26T06:42:37.961Z,30.72
2019-05-26T06:45:07.622Z,30.43
2019-05-26T06:47:37.117Z,29.55
2019-05-26T06:50:07.345Z,29.45
2019-05-26T06:52:36.759Z,29.92
2019-05-26T06:55:16.884Z,29.15
2019-05-26T06:57:46.233Z,29.98
2019-05-26T07:00:15.633Z,28.62
2019-05-26T07:02:45.073Z,28.62
2019-05-26T07:05:18.227Z,28.17
2019-05-26T07:07:45.766Z,28.25
2019-05-26T07:10:15.154Z,28.52
2019-05-26T07:12:44.472Z,28.10
2019-05-26T07:15:14.333Z,27.42
2019-05-26T07:17:43.993Z,26.57
2019-05-26T07:20:13.390Z,26.93
2019-05-26T07:22:42.775Z,26.15
2019-05-26T07:25:12.424Z,26.68
2019-05-26T07:27:42.153Z,26.35
2019-05-26T07:30:12.541Z,24.98
2019-05-26T07:32:41.951Z,25.40
2019-05-26T07:35:11.265Z,25.43
2019-05-26T07:37:40.663Z,24.85
2019-05-26T07:40:11.047Z,23.85
2019-05-26T07:42:40.440Z,23.75
2019-05-26T07:45:10.300Z,23.92
2019-05-26T07:47:39.744Z,24.43
2019-05-26T07:50:09.285Z,22.22
2019-05-26T07:52:38.657Z,22.55
2019-05-26T07:55:08.847Z,22.55
2019-05-26T07:57:38.437Z,22.58
2019-05-26T08:00:08.913Z,20.92
2019-05-26T08:02:38.241Z,21.27
2019-05-26T08:05:08.199Z,21.37
2019-05-26T08:07:37.542Z,20.82
2019-05-26T08:10:07.127Z,19.30
2019-05-26T08:12:36.599Z,20.95
2019-05-26T08:15:06.127Z,20.50
2019-05-26T08:17:35.464Z,20.52
2019-05-26T08:20:05.437Z,20.30
2019-05-26T08:23:09.139Z,21.77
2019-05-26T08:25:38.754Z,21.80
2019-05-26T08:28:08.267Z,21.70
2019-05-26T08:30:37.657Z,21.05
2019-05-26T08:33:07.370Z,21.85
2019-05-26T08:35:36.753Z,20.35
2019-05-26T08:38:06.549Z,20.65
2019-05-26T08:40:35.992Z,19.62
2019-05-26T08:43:05.347Z,17.80
2019-05-26T08:45:34.707Z,16.77
2019-05-26T08:48:04.278Z,15.50
2019-05-26T08:50:34.534Z,14.83
2019-05-26T08:53:04.068Z,15.63
2019-05-26T08:55:33.500Z,14.87
2019-05-26T08:58:02.886Z,14.98
2019-05-26T09:00:32.921Z,14.63
2019-05-26T09:03:02.415Z,14.00
2019-05-26T09:05:31.804Z,14.43
2019-05-26T09:08:01.203Z,13.50
2019-05-26T09:10:30.631Z,14.40
2019-05-26T09:13:02.380Z,13.88
2019-05-26T09:15:33.105Z,12.80
2019-05-26T09:18:02.506Z,12.90
2019-05-26T09:20:31.875Z,12.20
2019-05-26T09:23:01.338Z,12.50
2019-05-26T09:25:30.628Z,12.73
2019-05-26T09:28:00.041Z,11.93
2019-05-26T09:30:29.535Z,12.95
2019-05-26T09:32:59.112Z,11.95
2019-05-26T09:35:28.443Z,11.33
2019-05-26T09:37:57.850Z,11.48
2019-05-26T09:40:27.271Z,11.40
2019-05-26T09:42:56.594Z,11.75
2019-05-26T09:45:25.989Z,11.90
2019-05-26T09:47:55.819Z,11.33
2019-05-26T09:50:25.207Z,10.72
2019-05-26T09:52:54.555Z,10.45
2019-05-26T09:55:23.916Z,10.53
2019-05-26T09:57:53.347Z,9.33
2019-05-26T10:00:23.728Z,10.85
2019-05-26T10:02:53.299Z,9.20
2019-05-26T10:05:22.658Z,8.98
2019-05-26T10:07:51.995Z,9.80
2019-05-26T10:10:21.402Z,9.58
2019-05-26T10:12:50.869Z,9.60
2019-05-26T10:15:20.575Z,9.28
2019-05-26T10:17:50.016Z,8.80
2019-05-26T10:20:19.451Z,10.28
2019-05-26T10:22:48.841Z,8.40
2019-05-26T10:25:18.454Z,8.38
2019-05-26T10:27:48.452Z,7.95
2019-05-26T10:30:18.264Z,8.65
2019-05-26T10:32:47.532Z,8.45
2019-05-26T10:35:17.011Z,9.38
2019-05-26T10:37:46.392Z,8.83
2019-05-26T10:40:16.272Z,9.25
2019-05-26T10:42:45.617Z,9.63
2019-05-26T10:45:15.773Z,9.00
2019-05-26T10:47:45.134Z,8.60
2019-05-26T10:50:14.732Z,8.45
2019-05-26T10:52:44.209Z,8.43
2019-05-26T10:55:15.123Z,8.58
2019-05-26T10:57:44.558Z,7.95
2019-05-26T11:00:15.549Z,8.13
2019-05-26T11:02:44.997Z,8.18
2019-05-26T11:05:14.515Z,8.00
2019-05-26T11:07:44.007Z,7.92
2019-05-26T11:10:14.569Z,7.70
2019-05-26T11:12:44.040Z,7.33
2019-05-26T11:15:15.542Z,6.60
2019-05-26T11:17:44.923Z,7.00
2019-05-26T11:20:14.740Z,6.90
2019-05-26T11:22:44.051Z,7.00
2019-05-26T11:25:13.812Z,6.55
2019-05-26T11:27:43.632Z,5.70
2019-05-26T11:30:13.996Z,6.45
2019-05-26T11:32:43.407Z,6.00
2019-05-26T11:35:13.587Z,6.33
2019-05-26T11:37:42.921Z,5.60
2019-05-26T11:40:13.018Z,5.45
2019-05-26T11:42:44.844Z,5.42
2019-05-26T11:45:15.014Z,6.85
2019-05-26T11:47:44.508Z,6.40
2019-05-26T11:50:15.132Z,6.92
2019-05-26T11:52:44.507Z,6.15
2019-05-26T11:55:13.976Z,5.95
2019-05-26T11:57:43.315Z,5.83
2019-05-26T12:00:14.961Z,5.90
2019-05-26T12:02:45.275Z,6.08
2019-05-26T12:05:17.586Z,6.37
2019-05-26T12:07:45.924Z,6.95
2019-05-26T12:10:15.396Z,6.83
2019-05-26T12:12:44.780Z,6.87
2019-05-26T12:15:15.728Z,6.25
2019-05-26T12:17:45.159Z,6.80
2019-05-26T12:20:14.725Z,8.40
2019-05-26T12:22:44.106Z,6.95
2019-05-26T12:25:13.687Z,6.78
2019-05-26T12:27:43.321Z,7.05
2019-05-26T12:30:13.499Z,7.60
2019-05-26T12:32:42.911Z,7.03
2019-05-26T12:35:12.560Z,7.00
2019-05-26T12:37:41.937Z,6.42
2019-05-26T12:40:11.290Z,6.10
2019-05-26T12:42:40.624Z,6.08
2019-05-26T12:45:10.745Z,5.40
2019-05-26T12:47:40.090Z,5.15
2019-05-26T12:50:10.086Z,4.67
2019-05-26T12:52:39.580Z,5.58
2019-05-26T12:55:10.531Z,5.35
2019-05-26T12:57:39.924Z,5.35
2019-05-26T13:00:11.334Z,5.90
2019-05-26T13:02:40.808Z,5.70
2019-05-26T13:05:10.291Z,5.78
2019-05-26T13:07:39.713Z,5.42
2019-05-26T13:10:09.668Z,5.47
2019-05-26T13:12:39.132Z,5.60
2019-05-26T13:15:09.511Z,5.03
2019-05-26T13:17:38.902Z,5.87
2019-05-26T13:20:08.943Z,5.00
2019-05-26T13:22:39.571Z,5.97
2019-05-26T13:25:10.377Z,5.92
2019-05-26T13:27:40.333Z,5.83
2019-05-26T13:30:11.865Z,6.53
2019-05-26T13:32:41.251Z,6.50
2019-05-26T13:35:11.163Z,5.90
2019-05-26T13:37:40.569Z,5.92
2019-05-26T13:40:10.421Z,5.60
2019-05-26T13:42:39.771Z,5.22
2019-05-26T13:45:21.920Z,4.60
2019-05-26T13:47:42.423Z,4.70
2019-05-26T13:50:12.753Z,4.90
2019-05-26T13:52:42.148Z,4.87
2019-05-26T13:55:11.857Z,5.60
2019-05-26T13:57:41.194Z,4.80
2019-05-26T14:00:12.744Z,4.35
2019-05-26T14:02:42.153Z,4.97
2019-05-26T14:05:11.637Z,4.37
2019-05-26T14:07:40.974Z,5.33
2019-05-26T14:10:10.701Z,4.58
2019-05-26T14:12:43.142Z,5.28
2019-05-26T14:17:44.294Z,4.75
2019-05-26T14:20:19.288Z,4.72
2019-05-26T14:22:48.632Z,4.35
2019-05-26T14:25:18.154Z,4.40
2019-05-26T14:27:47.580Z,4.60
2019-05-26T14:30:17.084Z,4.20
2019-05-26T14:32:46.681Z,4.05
2019-05-26T14:35:16.080Z,4.47
2019-05-26T14:37:45.527Z,4.90
2019-05-26T14:40:15.307Z,4.25
2019-05-26T14:42:44.637Z,4.50
2019-05-26T14:45:14.283Z,4.40
2019-05-26T14:47:43.684Z,3.92
2019-05-26T14:50:13.501Z,3.75
2019-05-26T14:52:42.907Z,4.20
2019-05-26T14:55:13.961Z,4.00
2019-05-26T14:57:43.452Z,4.10
2019-05-26T15:00:13.570Z,4.30
2019-05-26T15:02:43.008Z,4.40
2019-05-26T15:05:12.393Z,4.67
2019-05-26T15:07:42.835Z,5.30
2019-05-26T15:10:13.066Z,5.83
2019-05-26T15:12:42.494Z,5.12
2019-05-26T15:15:12.649Z,4.95
2019-05-26T15:17:42.035Z,4.95
2019-05-26T15:20:11.808Z,5.12
2019-05-26T15:22:41.207Z,5.00
2019-05-26T15:25:10.776Z,5.75
2019-05-26T15:27:40.170Z,5.25
2019-05-26T15:30:10.094Z,5.28
2019-05-26T15:32:39.556Z,5.40
2019-05-26T15:35:10.269Z,5.40
2019-05-26T15:37:39.700Z,5.03
2019-05-26T15:40:09.848Z,5.22
2019-05-26T15:42:39.208Z,5.12
2019-05-26T15:45:08.995Z,5.20
2019-05-26T15:47:38.452Z,5.10
2019-05-26T15:50:09.160Z,5.20
2019-05-26T15:52:38.694Z,11.55
2019-05-26T15:55:08.167Z,18.75
2019-05-26T15:57:37.535Z,8.50
2019-05-26T16:00:07.076Z,6.35
2019-05-26T16:02:36.547Z,5.92
2019-05-26T16:05:06.584Z,5.40
2019-05-26T16:07:42.012Z,5.03
2019-05-26T16:10:11.681Z,5.47
2019-05-26T16:12:41.084Z,5.50
2019-05-26T16:15:11.061Z,8.53
2019-05-26T16:17:40.488Z,6.15
2019-05-26T16:20:10.646Z,6.50
2019-05-26T16:22:40.016Z,6.03
2019-05-26T16:25:09.740Z,6.05
2019-05-26T16:27:39.033Z,5.80
2019-05-26T16:30:08.773Z,5.80
2019-05-26T16:32:38.270Z,5.62
2019-05-26T16:35:08.000Z,5.87
2019-05-26T16:37:37.341Z,5.60
2019-05-26T16:40:06.945Z,5.53
2019-05-26T16:43:13.625Z,5.55
2019-05-26T16:46:09.773Z,5.40
2019-05-26T16:48:54.235Z,5.30
2019-05-26T16:51:18.105Z,5.20
2019-05-26T16:53:47.513Z,4.70
2019-05-26T16:56:16.927Z,4.80
2019-05-26T16:58:46.388Z,5.10
2019-05-26T17:01:15.874Z,4.70
2019-05-26T17:03:45.242Z,4.58
2019-05-26T17:06:14.669Z,4.87
2019-05-26T17:08:43.995Z,4.35
2019-05-26T17:11:13.402Z,4.25
2019-05-26T17:13:42.772Z,4.40
2019-05-26T17:16:12.191Z,4.72
2019-05-26T17:18:41.601Z,5.65
2019-05-26T17:21:11.065Z,10.98
2019-05-26T17:23:40.397Z,7.78
2019-05-26T17:26:09.733Z,5.87
2019-05-26T17:28:39.230Z,4.45
2019-05-26T17:31:08.649Z,5.00
2019-05-26T17:33:41.602Z,4.59
2019-05-26T17:36:11.036Z,5.00
2019-05-26T17:38:40.465Z,4.50
2019-05-26T17:41:09.892Z,4.28
2019-05-26T17:43:40.484Z,4.87
2019-05-26T17:46:10.005Z,4.45
2019-05-26T17:48:49.223Z,4.61
2019-05-26T17:51:18.522Z,4.87
2019-05-26T17:53:48.013Z,4.62
2019-05-26T17:56:17.317Z,4.92
2019-05-26T17:58:46.744Z,4.75
2019-05-26T18:01:21.775Z,4.70
2019-05-26T18:03:52.710Z,4.75
2019-05-26T18:06:25.555Z,4.50
2019-05-26T18:09:00.912Z,4.70
2019-05-26T18:11:30.224Z,4.65
2019-05-26T18:13:59.677Z,4.53
2019-05-26T18:16:29.018Z,4.42
2019-05-26T18:18:58.426Z,4.67
2019-05-26T18:21:28.480Z,4.45
2019-05-26T18:23:57.886Z,5.20
2019-05-26T18:26:27.349Z,4.97
2019-05-26T18:28:56.735Z,4.92
2019-05-26T18:31:28.903Z,5.25
2019-05-26T18:33:57.196Z,5.00
2019-05-26T18:36:26.519Z,4.92
2019-05-26T18:38:56.138Z,5.15
2019-05-26T18:41:25.601Z,5.53
2019-05-26T18:43:55.020Z,5.78
2019-05-26T18:46:24.410Z,5.47
2019-05-26T18:48:53.956Z,5.28
2019-05-26T18:51:23.445Z,5.42
2019-05-26T18:53:52.961Z,5.12
2019-05-26T18:56:22.351Z,5.35
2019-05-26T18:58:51.783Z,5.50
2019-05-26T19:01:21.252Z,9.25
2019-05-26T19:03:50.741Z,10.05
2019-05-26T19:06:20.113Z,8.30
2019-05-26T19:08:49.488Z,5.90
2019-05-26T19:11:19.040Z,4.92
2019-05-26T19:13:48.481Z,4.30
2019-05-26T19:16:21.568Z,4.37
2019-05-26T19:18:51.055Z,4.12
2019-05-26T19:21:20.524Z,4.05
2019-05-26T19:23:49.974Z,3.70
2019-05-26T19:26:19.520Z,3.83
2019-05-26T19:28:48.849Z,5.35
2019-05-26T19:31:18.314Z,9.98
2019-05-26T19:33:47.716Z,17.75
2019-05-26T19:36:17.114Z,31.80
2019-05-26T19:38:46.532Z,23.42
2019-05-26T19:41:15.969Z,9.48
2019-05-26T19:43:45.363Z,6.90
2019-05-26T19:46:15.091Z,5.80
2019-05-26T19:48:44.514Z,5.05
2019-05-26T19:51:40.839Z,3.98
2019-05-26T19:54:11.749Z,4.15
2019-05-26T19:56:41.256Z,4.90
2019-05-26T19:59:10.824Z,3.70
2019-05-26T20:01:49.323Z,3.99
2019-05-26T20:04:21.093Z,3.87
2019-05-26T20:06:50.624Z,4.03
2019-05-26T20:09:20.001Z,3.85
2019-05-26T20:11:49.419Z,3.77
2019-05-26T20:14:18.843Z,3.80
2019-05-26T20:16:48.341Z,4.20
2019-05-26T20:19:17.744Z,4.30
2019-05-26T20:21:47.147Z,3.85
2019-05-26T20:24:16.596Z,5.87
2019-05-26T20:26:46.002Z,5.30
2019-05-26T20:29:15.495Z,5.65
2019-05-26T20:31:44.867Z,5.72
2019-05-26T20:34:14.246Z,5.03
2019-05-26T20:36:43.619Z,4.90
2019-05-26T20:39:13.036Z,4.90
2019-05-26T20:41:42.670Z,5.30
2019-05-26T20:44:12.085Z,5.55
2019-05-26T20:46:41.646Z,4.92
2019-05-26T20:49:11.235Z,5.00
2019-05-26T20:51:40.833Z,5.40
2019-05-26T20:54:13.040Z,5.42
2019-05-26T20:56:44.174Z,5.47
2019-05-26T20:59:13.631Z,5.70
2019-05-26T21:01:43.023Z,5.60
2019-05-26T21:04:14.677Z,5.50
2019-05-26T21:06:44.190Z,6.13
2019-05-26T21:09:15.309Z,6.05
2019-05-26T21:11:44.758Z,6.05
2019-05-26T21:14:14.372Z,5.83
2019-05-26T21:16:45.062Z,5.35
2019-05-26T21:19:14.586Z,5.22
2019-05-26T21:21:43.957Z,5.20
2019-05-26T21:24:13.510Z,5.00
2019-05-26T21:26:42.986Z,5.67
2019-05-26T21:29:12.557Z,5.00
2019-05-26T21:31:47.813Z,5.00
2019-05-26T21:34:20.657Z,4.70
2019-05-26T21:36:50.962Z,4.37
2019-05-26T21:39:21.941Z,4.60
2019-05-26T21:41:51.403Z,4.80
2019-05-26T21:44:20.976Z,4.55
2019-05-26T21:46:50.453Z,4.37
2019-05-26T21:49:19.842Z,4.00
2019-05-26T21:51:49.184Z,3.90
2019-05-26T21:54:18.522Z,3.83
2019-05-26T21:56:47.866Z,4.03
2019-05-26T21:59:17.281Z,3.95
2019-05-26T22:01:46.767Z,3.47
2019-05-26T22:04:17.322Z,3.33
2019-05-26T22:06:46.689Z,3.72
2019-05-26T22:09:16.061Z,4.00
2019-05-26T22:11:48.365Z,3.70
2019-05-26T22:14:17.972Z,4.00
2019-05-26T22:16:47.529Z,3.55
2019-05-26T22:19:16.943Z,4.00
2019-05-26T22:21:46.480Z,3.92
2019-05-26T22:24:15.991Z,3.90
2019-05-26T22:26:45.598Z,3.90
2019-05-26T22:29:18.189Z,3.62
2019-05-26T22:34:16.371Z,3.95
2019-05-26T22:36:46.080Z,3.72
2019-05-26T22:39:17.340Z,3.80
2019-05-26T22:41:46.940Z,3.50
2019-05-26T22:44:16.546Z,3.85
2019-05-26T22:46:45.998Z,3.60
2019-05-26T22:49:15.564Z,3.77
2019-05-26T22:51:45.050Z,4.08
2019-05-26T22:54:14.563Z,4.00
2019-05-26T22:56:45.291Z,3.95
2019-05-26T22:59:14.710Z,4.08
2019-05-26T23:01:44.404Z,4.00
2019-05-26T23:04:13.937Z,3.80
2019-05-26T23:06:43.354Z,4.10
2019-05-26T23:09:12.765Z,3.80
2019-05-26T23:11:42.170Z,3.87
2019-05-26T23:14:11.679Z,4.40
2019-05-26T23:16:41.063Z,4.10
2019-05-26T23:19:19.328Z,4.37
2019-05-26T23:21:44.253Z,4.50
2019-05-26T23:24:13.674Z,4.80
2019-05-26T23:26:43.097Z,4.50
2019-05-26T23:29:12.610Z,4.78
2019-05-26T23:31:43.182Z,4.28
2019-05-26T23:34:12.720Z,4.53
2019-05-26T23:36:42.103Z,5.00
2019-05-26T23:39:11.920Z,5.25
2019-05-26T23:41:41.478Z,6.20
2019-05-26T23:44:10.869Z,5.95
2019-05-26T23:46:40.281Z,6.28
2019-05-26T23:49:10.893Z,6.22
2019-05-26T23:51:40.722Z,6.35
2019-05-26T23:54:10.144Z,6.72
2019-05-26T23:56:39.608Z,6.87
2019-05-26T23:59:09.058Z,6.97
